Estación municipal de Cercs - St.Jordi (Berguedà, )

Consulta los datos en tiempo real de la estación municipal de Cercs - St.Jordi





Hora UTC 17:55
Temperatura 24.8 ºC
Humedad 63.6 %
Presión 1020.0 hPa
Pluja 0.1 mm
Velocidad viento 1.6 km/h
Dirección viento SSE
Radiación solar 19.3 W/m²

Datos diarios 2026-09-01



Hora UTC (invierno +1h; verano +2h)
Temperatura (ºC) Humedad (%) Presión (hPa) Velocidad viento (km/h) Precipitación (mm) Radiación solar (W/m²)
Hora UTC Aire Humedad Presión Vel. Dir. Vel. Max Dir. Intent. máx 5 min. Rad. Sol.
00:05 20.9 79.9 1022.4 1.2 SSW 1.2 S 0.0 0.1
00:10 20.8 79.5 1022.4 0.0 NNE 0.0 SW 0.0 0.1
00:15 20.8 79.8 1022.3 0.0 NNE 0.0 SW 0.0 0.1
00:20 20.8 79.3 1022.4 0.0 NNE 0.0 SW 0.0 0.1
00:25 20.8 79.8 1022.4 0.0 NNE 0.0 SW 0.0 0.1
00:30 20.8 79.9 1022.4 0.4 SSE 3.4 SE 0.0 0.1
00:35 20.7 77.9 1022.4 0.1 S 3.4 S 0.0 0.1
00:40 20.8 76.3 1022.3 0.0 S 3.4 S 0.0 0.1
00:45 20.6 76.5 1022.3 0.0 NNE 0.0 SSW 0.0 0.1
00:50 20.6 76.1 1022.3 0.0 NNE 0.0 SSW 0.0 0.1
00:55 20.6 74.7 1022.2 0.1 SE 3.4 SE 0.0 0.1
01:00 20.7 74.3 1022.3 0.0 SE 3.4 SE 0.0 0.1
01:05 20.7 74.0 1022.3 0.0 NNE 0.0 ENE 0.0 0.1
01:10 20.9 77.3 1022.3 0.0 NNE 0.0 SSW 0.0 0.2
01:15 20.9 79.5 1022.2 0.7 NNE 6.1 NE 0.0 0.1
01:20 20.9 80.8 1022.3 0.0 NNE 0.0 NE 0.0 0.1
01:25 20.8 81.2 1022.3 0.3 NE 3.4 NE 0.0 0.1
01:30 20.7 80.7 1022.2 0.6 NE 6.1 N 0.0 0.1
01:35 20.7 80.4 1022.2 0.2 E 6.1 ESE 0.0 0.1
01:40 20.7 81.5 1022.2 2.8 NE 6.1 ENE 0.0 0.1
01:45 20.7 82.2 1022.2 1.9 NE 6.1 NE 0.0 0.1
01:50 20.6 82.3 1022.2 2.4 ENE 6.1 NE 0.0 0.1
01:55 20.6 82.5 1022.2 0.0 NNE 0.0 ENE 0.0 0.1
02:00 20.6 82.3 1022.2 0.0 NNE 0.0 NE 0.0 0.1
02:05 20.4 82.3 1022.2 0.0 NNE 0.0 NE 0.0 0.1
02:10 20.3 82.6 1022.2 0.0 NNE 0.0 S 0.0 0.1
02:15 20.0 83.8 1022.2 0.0 NNE 0.0 SW 0.0 0.1
02:20 19.9 84.4 1022.2 0.0 NNE 0.0 SW 0.0 0.1
02:25 19.6 85.3 1022.1 0.0 NNE 0.0 SW 0.0 0.1
02:30 19.5 85.5 1022.1 0.6 S 3.4 S 0.0 0.1
02:35 19.4 85.0 1022.0 0.0 NNE 0.0 SSW 0.0 0.1
02:40 19.2 85.4 1021.9 2.5 SSW 6.1 SSW 0.0 0.1
02:45 19.0 86.2 1021.9 2.6 SW 6.1 SW 0.0 0.1
02:50 19.0 86.9 1021.9 1.5 WSW 6.1 WSW 0.0 0.1
02:55 18.8 87.5 1021.9 0.0 SSW 3.4 SSW 0.0 0.1
03:00 18.8 87.8 1021.8 0.8 SSW 3.4 S 0.0 0.1
03:05 18.7 87.9 1021.8 0.0 NNE 0.0 SSW 0.0 0.2
03:10 18.6 88.3 1021.8 0.0 NNE 0.0 SSW 0.0 0.1
03:15 18.6 89.2 1021.7 0.6 SSW 3.4 SSW 0.0 0.1
03:20 18.6 89.2 1021.7 0.9 SSW 6.1 SSW 0.0 0.1
03:25 18.6 89.6 1021.7 1.8 SSW 6.1 S 0.0 0.1
03:30 18.4 89.6 1021.7 1.5 SW 6.1 SW 0.0 0.1
03:35 18.3 89.0 1021.6 2.9 SSW 6.1 SSW 0.0 0.1
03:40 18.2 88.9 1021.6 2.9 SW 6.1 SSW 0.0 0.1
03:45 18.3 89.2 1021.5 0.0 NNE 0.0 WSW 0.0 0.1
03:50 18.3 89.2 1021.5 1.2 SSW 6.1 SSW 0.0 0.1
03:55 18.1 88.5 1021.5 1.3 SW 6.1 WSW 0.0 0.1
04:00 18.0 88.5 1021.4 0.9 SW 6.1 SW 0.0 0.2
04:05 18.0 88.1 1021.3 0.0 NNE 0.0 W 0.0 0.1
04:10 18.0 88.2 1021.3 0.0 NNE 0.0 WSW 0.0 0.1
04:15 17.9 88.7 1021.3 0.0 NNE 0.0 SW 0.0 0.1
04:20 17.9 89.5 1021.3 0.0 NNE 0.0 WSW 0.0 0.1
04:25 17.9 89.9 1021.3 0.0 NNE 0.0 SW 0.0 0.1
04:30 17.8 89.4 1021.3 0.0 NNE 0.0 SW 0.0 0.1
04:35 17.9 88.8 1021.3 0.0 NNE 0.0 SE 0.0 0.1
04:40 17.9 88.2 1021.3 0.0 NNE 0.0 S 0.0 0.2
04:45 17.9 88.1 1021.3 0.0 NNE 0.0 SSW 0.0 0.2
04:50 17.9 88.2 1021.3 0.0 NNE 0.0 SSW 0.0 0.3
04:55 17.9 88.5 1021.3 0.0 NNE 0.0 SSW 0.0 0.4
05:00 17.8 88.9 1021.3 0.0 NNE 0.0 SSW 0.0 0.7
05:05 17.9 89.0 1021.3 0.0 NNE 0.0 SSW 0.0 1.1
05:10 17.9 89.4 1021.3 0.0 NNE 0.0 SSW 0.0 2.0
05:15 17.8 89.3 1021.4 0.0 NNE 0.0 SSW 0.0 3.0
05:20 17.6 89.8 1021.4 0.0 NNE 0.0 SSW 0.0 4.3
05:25 17.7 90.5 1021.5 0.0 NNE 0.0 SW 0.0 5.9
05:30 17.8 90.4 1021.5 0.0 NNE 0.0 WSW 0.0 7.7
05:35 17.8 89.5 1021.5 0.0 NNE 0.0 SSW 0.0 9.6
05:40 17.7 88.3 1021.5 0.0 NNE 0.0 SW 0.0 11.5
05:45 17.8 88.0 1021.5 0.0 NNE 0.0 SW 0.0 13.5
05:50 18.1 87.8 1021.6 0.0 NNE 0.0 S 0.0 15.7
05:55 18.4 87.2 1021.6 0.0 NNE 0.0 W 0.0 21.1
06:00 18.5 86.9 1021.6 0.0 NNE 0.0 W 0.0 27.0
06:05 18.6 86.5 1021.6 0.0 NNE 0.0 SSE 0.0 30.8
06:10 18.7 85.9 1021.6 0.0 NNE 0.0 SSE 0.0 37.6
06:15 18.7 85.8 1021.6 0.0 NNE 0.0 SSE 0.0 40.0
06:20 18.8 85.2 1021.6 0.0 NNE 0.0 ENE 0.0 51.4
06:25 18.9 85.0 1021.6 0.0 NNE 0.0 NNW 0.0 58.6
06:30 19.0 85.2 1021.7 0.3 NW 11.5 NW 0.0 55.4
06:35 19.1 84.2 1021.7 3.6 WNW 8.8 NW 0.0 48.7
06:40 19.3 83.6 1021.7 1.1 W 6.1 WNW 0.0 58.4
06:45 19.3 82.7 1021.7 0.0 NNE 0.0 WSW 0.0 58.2
06:50 19.4 81.9 1021.8 0.0 NNE 0.0 WSW 0.0 65.9
06:55 19.6 81.3 1021.8 0.0 NNE 0.0 W 0.0 71.4
07:00 19.9 80.4 1021.7 0.0 NNE 0.0 W 0.0 71.1
07:05 19.9 79.8 1021.7 0.0 NNE 0.0 NE 0.0 69.6
07:10 20.0 79.4 1021.6 0.0 NNE 0.0 ENE 0.0 60.1
07:15 20.1 79.0 1021.6 0.0 NNE 0.0 NNE 0.0 65.0
07:20 20.3 78.8 1021.7 0.0 NNE 0.0 E 0.0 75.1
07:25 20.6 77.2 1021.7 0.0 NNE 0.0 E 0.0 64.8
07:30 20.6 77.0 1021.7 0.0 NNE 0.0 E 0.0 64.7
07:35 20.8 76.7 1021.8 0.0 NNE 0.0 NE 0.0 67.6
07:40 21.1 75.8 1021.7 0.0 NNE 0.0 ENE 0.0 64.3
07:45 21.2 75.8 1021.7 0.0 NNE 0.0 ENE 0.0 63.8
07:50 21.2 75.8 1021.7 0.0 NNE 0.0 NE 0.0 66.5
07:55 21.5 75.1 1021.7 0.5 ENE 6.1 ENE 0.0 67.0
08:00 21.7 74.5 1021.7 0.1 E 3.4 ENE 0.0 67.4
08:05 21.8 74.6 1021.7 1.5 NE 6.1 NE 0.0 67.8
08:10 22.0 74.0 1021.7 1.5 NE 6.1 NE 0.0 69.9
08:15 22.1 73.8 1021.7 0.7 SSE 6.1 SSE 0.0 81.4
08:20 22.3 73.1 1021.7 2.4 NE 8.8 ENE 0.0 177.0
08:25 22.5 72.7 1021.7 2.3 ENE 6.1 ENE 0.0 188.7
08:30 22.8 71.8 1021.7 1.4 NE 6.1 SW 0.0 276.6
08:35 23.0 71.2 1021.7 2.4 ESE 8.8 ESE 0.0 462.2
08:40 23.3 70.1 1021.7 3.1 SE 6.1 ESE 0.0 474.9
08:45 23.5 69.2 1021.7 0.3 ESE 6.1 NE 0.1 487.7
08:50 24.2 67.3 1021.6 0.7 SE 6.1 SE 0.0 500.6
08:55 24.4 65.5 1021.6 1.3 E 6.1 ESE 0.0 512.6
09:00 24.8 64.4 1021.5 2.5 SSE 6.1 ESE 0.0 523.0
09:05 25.0 63.3 1021.6 4.8 SE 11.5 SE 0.0 534.6
09:10 25.4 62.0 1021.6 2.6 SE 8.8 S 0.0 545.1
09:15 25.6 61.8 1021.6 3.6 ESE 8.8 ESE 0.0 555.3
09:20 26.0 60.8 1021.6 1.9 S 8.8 SSW 0.0 566.0
09:25 26.2 59.4 1021.5 1.7 S 6.1 SW 0.0 576.6
09:30 25.9 59.6 1021.5 1.9 ESE 8.8 E 0.0 587.3
09:35 26.2 60.0 1021.5 4.6 SSE 11.5 SSE 0.0 597.0
09:40 26.6 58.9 1021.5 3.8 SE 11.5 SE 0.0 605.2
09:45 26.6 56.9 1021.4 3.8 SE 8.8 ESE 0.0 613.3
09:50 26.9 56.7 1021.4 1.7 SE 8.8 SW 0.0 620.7
09:55 27.1 56.4 1021.5 5.3 SSE 11.5 SSE 0.0 628.4
10:00 27.4 55.6 1021.4 5.1 SE 14.2 SE 0.0 636.4
10:05 27.7 55.1 1021.4 4.8 SSE 11.5 SSW 0.0 642.9
10:10 27.8 55.3 1021.5 8.8 SSE 19.6 SE 0.0 648.6
10:15 27.5 55.8 1021.5 7.1 SE 16.9 SE 0.0 653.6
10:20 28.1 55.0 1021.5 4.8 SE 11.5 ENE 0.0 668.9
10:25 28.1 55.4 1021.5 10.2 SE 22.3 ESE 0.0 695.7
10:30 27.7 57.3 1021.6 10.4 S 19.6 SE 0.0 728.1
10:35 27.7 57.7 1021.6 6.6 SE 14.2 SSW 0.0 692.4
10:40 28.0 56.6 1021.7 9.4 SE 22.3 S 0.0 772.0
10:45 28.1 56.4 1021.7 7.2 SE 19.6 SE 0.0 719.1
10:50 28.3 55.1 1021.6 4.0 ESE 8.8 ESE 0.0 453.9
10:55 28.1 55.2 1021.5 7.0 ESE 16.9 ESE 0.0 710.1
11:00 28.2 54.6 1021.5 7.1 ESE 19.6 ESE 0.0 722.9
11:05 28.3 54.0 1021.5 7.9 ESE 22.3 E 0.0 691.9
11:10 28.6 53.1 1021.4 8.3 ESE 27.7 E 0.0 731.0
11:15 28.6 52.9 1021.4 7.2 SE 16.9 SE 0.0 728.4
11:20 28.8 52.5 1021.4 7.9 SE 30.4 SE 0.0 730.4
11:25 28.9 51.9 1021.4 10.1 SE 22.3 E 0.0 724.4
11:30 29.0 51.8 1021.4 9.9 SE 25.0 ESE 0.0 729.5
11:35 29.0 52.0 1021.3 9.9 SE 16.9 S 0.0 727.4
11:40 29.2 50.9 1021.3 8.3 ESE 19.6 SE 0.0 731.3
11:45 29.1 51.0 1021.3 8.4 SE 22.3 ESE 0.0 738.3
11:50 29.4 50.1 1021.2 6.3 SE 16.9 ESE 0.0 734.7
11:55 29.6 49.3 1021.3 8.1 SE 25.0 SSW 0.0 742.3
12:00 29.4 49.1 1021.3 9.2 ESE 25.0 SSE 0.0 741.7
12:05 29.4 48.6 1021.3 7.6 ESE 19.6 SE 0.0 743.3
12:10 29.4 48.6 1021.2 8.4 ESE 22.3 SE 0.0 750.8
12:15 29.5 48.7 1021.2 7.4 SE 14.2 SSE 0.0 680.9
12:20 29.5 47.7 1021.2 7.9 SE 22.3 SSE 0.0 681.0
12:25 29.3 47.4 1021.2 8.4 ESE 25.0 SSE 0.0 561.1
12:30 28.7 49.6 1021.1 11.4 SE 27.7 SE 0.0 373.8
12:35 28.5 50.4 1021.1 6.5 SE 16.9 ENE 0.0 269.8
12:40 28.1 51.4 1021.2 10.6 SE 22.3 ESE 0.0 421.3
12:45 28.4 50.7 1021.1 7.7 ESE 25.0 SE 0.0 606.2
12:50 28.6 49.7 1021.1 9.0 SE 25.0 ENE 0.0 240.4
12:55 28.4 50.7 1021.0 7.5 SE 25.0 SSE 0.0 426.1
13:00 28.7 49.9 1021.0 10.0 SE 22.3 ESE 0.0 711.2
13:05 29.2 48.3 1020.9 7.6 SE 16.9 E 0.0 408.2
13:10 29.0 48.6 1021.0 9.3 SE 22.3 ESE 0.0 387.6
13:15 28.7 49.9 1020.9 6.0 SE 19.6 ESE 0.0 379.4
13:20 28.9 49.3 1020.8 8.7 SSE 22.3 SE 0.0 578.8
13:25 28.9 48.6 1020.8 9.2 SE 19.6 SSE 0.0 530.3
13:30 28.9 48.7 1020.8 7.7 SSE 27.7 SSE 0.0 373.0
13:35 28.6 49.0 1020.7 7.9 SE 22.3 SSE 0.0 483.2
13:40 28.9 48.8 1020.6 7.7 SSE 19.6 SE 0.0 571.9
13:45 29.2 48.0 1020.6 6.1 SE 16.9 SE 0.0 577.3
13:50 29.6 47.4 1020.5 8.1 SSE 19.6 SE 0.0 670.9
13:55 29.6 46.9 1020.4 8.3 SSE 22.3 S 0.0 544.6
14:00 29.5 47.3 1020.5 8.1 SSE 19.6 SE 0.0 643.5
14:05 29.6 46.7 1020.4 7.7 SE 19.6 ESE 0.0 620.6
14:10 29.6 46.9 1020.3 8.4 SSE 19.6 SSE 0.0 606.4
14:15 29.7 46.2 1020.3 8.1 SE 19.6 ESE 0.0 597.4
14:20 29.8 46.3 1020.3 7.8 SSE 16.9 SE 0.0 590.3
14:25 29.8 46.0 1020.3 5.1 SE 16.9 SSE 0.0 577.8
14:30 29.8 46.3 1020.2 8.2 SE 22.3 SSE 0.0 559.7
14:35 29.8 46.4 1020.1 5.0 SE 11.5 SE 0.0 550.2
14:40 29.9 46.9 1020.1 6.8 SSE 16.9 ESE 0.0 543.2
14:45 29.9 47.1 1020.1 6.4 S 14.2 SW 0.0 534.8
14:50 29.8 47.1 1020.1 6.4 SE 11.5 SSE 0.0 525.1
14:55 30.1 45.8 1020.0 6.3 ESE 14.2 E 0.0 516.2
15:00 29.9 47.3 1020.0 8.2 SSE 16.9 SSW 0.0 503.5
15:05 29.7 47.8 1020.1 8.2 SSE 16.9 SSE 0.0 500.8
15:10 29.6 47.6 1020.1 7.4 SSE 16.9 ESE 0.0 364.5
15:15 29.4 48.8 1020.1 4.3 SSE 11.5 SW 0.0 404.0
15:20 29.4 48.1 1020.0 3.7 SE 8.8 SSE 0.0 477.2
15:25 29.8 47.8 1020.0 4.9 SE 16.9 SE 0.0 448.0
15:30 30.1 46.6 1020.0 6.0 SE 16.9 ESE 0.0 392.3
15:35 29.7 47.5 1020.0 6.9 SE 19.6 E 0.0 353.8
15:40 29.7 47.5 1020.1 6.3 SE 19.6 ESE 0.0 396.6
15:45 29.5 48.1 1020.1 9.9 SE 27.7 SE 0.0 380.4
15:50 29.0 49.3 1020.2 7.4 SSE 22.3 S 0.0 363.3
15:55 28.7 50.1 1020.2 8.2 SE 19.6 SSE 0.0 238.5
16:00 28.6 50.8 1020.1 8.2 SE 19.6 SE 0.0 343.1
16:05 28.6 50.6 1020.2 6.1 SE 16.9 ESE 0.0 322.3
16:10 28.9 50.5 1020.1 2.4 SE 14.2 ESE 0.0 301.6
16:15 29.1 50.1 1020.1 3.2 SSE 8.8 SSW 0.0 296.8
16:20 29.0 50.2 1020.1 6.5 SE 16.9 SSE 0.0 284.4
16:25 28.7 51.2 1020.1 7.5 SSE 16.9 SE 0.0 270.3
16:30 28.0 52.9 1020.2 6.3 SE 14.2 SSE 0.0 256.7
16:35 27.7 53.7 1020.2 7.0 SSE 16.9 ESE 0.0 240.7
16:40 27.6 54.1 1020.2 5.1 SSE 11.5 SSE 0.0 180.6
16:45 27.4 54.7 1020.2 5.7 SSE 16.9 SSE 0.0 62.3
16:50 27.3 55.0 1020.2 3.6 SE 11.5 SSE 0.0 93.2
16:55 27.1 55.6 1020.1 3.5 SSE 11.5 SE 0.0 79.7
17:00 26.7 56.9 1020.0 3.7 SE 8.8 ESE 0.0 53.2
17:05 26.4 57.9 1020.0 5.5 SE 14.2 SE 0.0 83.6
17:10 26.1 58.4 1019.9 4.4 SSE 11.5 SSE 0.0 58.3
17:15 26.0 59.0 1019.9 5.2 SE 11.5 SE 0.0 47.0
17:20 25.8 59.4 1019.9 4.7 SE 14.2 ESE 0.0 41.6
17:25 25.8 59.3 1020.0 5.6 SE 16.9 SE 0.0 42.2
17:30 25.6 59.8 1020.1 6.0 SSE 14.2 SE 0.0 39.3
17:35 25.4 60.8 1020.1 2.9 SSE 8.8 S 0.0 33.7
17:40 25.2 61.7 1020.1 2.3 SSE 11.5 S 0.0 27.7
17:45 25.1 62.4 1020.0 3.1 S 8.8 SE 0.0 21.3
17:50 24.9 63.0 1020.0 2.4 SSE 6.1 S 0.0 19.0
17:55 24.8 63.6 1020.0 1.6 SSE 8.8 SSE 0.0 19.3
Máxima 30.1 90.5 1022.4 11.4 SE 30.4 SE 0.1 772.0
Mínima 17.6 45.8 1019.9
Total 0.1